Main page
METAR-TAF:

METAR-TAF

Airports :

Leipzig–Altenburg Airport

Altenburg, Germany

latitude: 50-58N, longitude: 012-30E, elevation: 195 m

Current weather observation

The report was made 34 minutes ago, at 06:50 UTC
Wind 4 kt from the East/Southeast, varying between East and Southeast
Temperature -1°C
Humidity 69%
Pressure 1015 hPa
Visibility 10 km or more

METAR: EDAC 160650Z AUTO 11004KT 080V140 9999 // OVC026/// M01/M06 Q1015

Time: 08:24 (07:24 UTC)

Forecast

The report was made 17 hours and 24 minutes ago, at 14:00 UTC
Forecast valid from 15 at 15 UTC to 15 at 24 UTC
Wind 5 kt from the Northeast
Visibility: 8000 m
Broken clouds at a height of 2000 ft
Probability 30% :
Temporary
from 15 at 15 UTC to 15 at 18 UTC
Visibility: 4000 m
Broken clouds at a height of 900 ft
light snow

TAF: EDAC 151400Z 1515/1524 05005KT 8000 BKN020 PROB30 TEMPO 1515/1518 4000 -SN BKN009

Weather observations and forecasts of more than 4000 airports (METAR and TAF reports).

The available stations are represented by yellow and red dots on the map.

Hover mouse over dot to see the name of the station.

Then click to see weather observations and forecasts.

To change the map : click on the green buttons with a black cross to zoom in, on the green button with a dash to zoom out, or on the green arrows for adjacent maps.


METAR-TAF: